createdAt,value
2023-02-22T00:01:07.721Z,100.00
2023-02-22T00:03:34.981Z,100.00
2023-02-22T00:06:05.185Z,100.00
2023-02-22T00:08:36.234Z,100.00
2023-02-22T00:11:09.006Z,100.00
2023-02-22T00:13:37.249Z,100.00
2023-02-22T00:16:04.621Z,100.00
2023-02-22T00:18:31.000Z,100.00
2023-02-22T00:21:01.815Z,100.00
2023-02-22T00:23:30.291Z,100.00
2023-02-22T00:26:00.276Z,100.00
2023-02-22T00:28:26.978Z,100.00
2023-02-22T00:30:55.351Z,100.00
2023-02-22T00:33:22.284Z,100.00
2023-02-22T00:35:48.962Z,100.00
2023-02-22T00:38:18.298Z,100.00
2023-02-22T00:40:45.524Z,100.00
2023-02-22T00:43:12.256Z,100.00
2023-02-22T00:45:38.890Z,100.00
2023-02-22T00:48:06.547Z,100.00
2023-02-22T00:50:33.560Z,100.00
2023-02-22T00:53:01.308Z,100.00
2023-02-22T00:55:31.346Z,100.00
2023-02-22T00:57:59.543Z,100.00
2023-02-22T01:00:39.978Z,100.00
2023-02-22T01:03:14.891Z,100.00
2023-02-22T01:05:42.305Z,100.00
2023-02-22T01:08:10.464Z,100.00
2023-02-22T01:10:38.028Z,100.00
2023-02-22T01:13:08.717Z,100.00
2023-02-22T01:15:37.229Z,100.00
2023-02-22T01:18:05.625Z,100.00
2023-02-22T01:20:32.542Z,100.00
2023-02-22T01:23:00.992Z,100.00
2023-02-22T01:25:30.079Z,100.00
2023-02-22T01:27:58.532Z,100.00
2023-02-22T01:30:28.485Z,100.00
2023-02-22T01:32:57.185Z,100.00
2023-02-22T01:35:27.892Z,100.00
2023-02-22T01:37:54.977Z,100.00
2023-02-22T01:40:42.866Z,100.00
2023-02-22T01:43:18.825Z,100.00
2023-02-22T01:45:54.761Z,100.00
2023-02-22T01:48:32.657Z,100.00
2023-02-22T01:51:11.507Z,100.00
2023-02-22T01:53:58.504Z,100.00
2023-02-22T01:56:29.007Z,100.00
2023-02-22T01:59:01.482Z,100.00
2023-02-22T02:01:29.511Z,100.00
2023-02-22T02:03:59.925Z,100.00
2023-02-22T02:06:31.347Z,100.00
2023-02-22T02:09:04.565Z,100.00
2023-02-22T02:11:32.324Z,100.00
2023-02-22T02:13:59.169Z,100.00
2023-02-22T02:16:34.603Z,100.00
2023-02-22T02:19:01.365Z,100.00
2023-02-22T02:21:53.601Z,100.00
2023-02-22T02:24:41.280Z,100.00
2023-02-22T02:27:19.337Z,100.00
2023-02-22T02:30:23.700Z,100.00
2023-02-22T02:32:59.088Z,100.00
2023-02-22T02:35:38.134Z,100.00
2023-02-22T02:38:22.894Z,100.00
2023-02-22T02:41:01.055Z,100.00
2023-02-22T02:43:39.363Z,100.00
2023-02-22T02:46:29.165Z,100.00
2023-02-22T02:49:02.082Z,100.00
2023-02-22T02:51:34.079Z,100.00
2023-02-22T02:54:03.286Z,100.00
2023-02-22T02:56:30.824Z,100.00
2023-02-22T02:58:57.401Z,100.00
2023-02-22T03:01:42.795Z,100.00
2023-02-22T03:04:23.432Z,100.00
2023-02-22T03:07:27.822Z,100.00
2023-02-22T03:10:16.323Z,100.00
2023-02-22T03:12:55.590Z,100.00
2023-02-22T03:15:33.574Z,100.00
2023-02-22T03:18:08.973Z,100.00
2023-02-22T03:20:45.945Z,100.00
2023-02-22T03:23:35.464Z,100.00
2023-02-22T03:26:07.476Z,100.00
2023-02-22T03:28:41.233Z,100.00
2023-02-22T03:31:12.815Z,100.00
2023-02-22T03:33:47.781Z,100.00
2023-02-22T03:36:25.233Z,100.00
2023-02-22T03:38:56.733Z,100.00
2023-02-22T03:41:25.946Z,100.00
2023-02-22T03:44:02.011Z,100.00
2023-02-22T03:46:30.660Z,100.00
2023-02-22T03:49:05.257Z,100.00
2023-02-22T03:51:31.888Z,100.00
2023-02-22T03:53:58.590Z,100.00
2023-02-22T03:56:38.055Z,100.00
2023-02-22T03:59:08.237Z,100.00
2023-02-22T04:01:35.961Z,100.00
2023-02-22T04:04:02.893Z,100.00
2023-02-22T04:06:29.803Z,100.00
2023-02-22T04:08:59.058Z,100.00
2023-02-22T04:11:25.959Z,100.00
2023-02-22T04:13:54.910Z,100.00
2023-02-22T04:16:21.597Z,100.00
2023-02-22T04:18:48.143Z,100.00
2023-02-22T04:21:15.317Z,100.00
2023-02-22T04:23:42.038Z,100.00
2023-02-22T04:26:08.632Z,100.00
2023-02-22T04:28:35.210Z,100.00
2023-02-22T04:31:01.892Z,100.00
2023-02-22T04:33:28.512Z,100.00
2023-02-22T04:35:57.902Z,100.00
2023-02-22T04:38:26.271Z,100.00
2023-02-22T04:40:55.633Z,100.00
2023-02-22T04:43:22.208Z,100.00
2023-02-22T04:45:48.851Z,100.00
2023-02-22T04:48:15.419Z,100.00
2023-02-22T04:50:42.311Z,100.00
2023-02-22T04:53:09.267Z,100.00
2023-02-22T04:55:35.933Z,100.00
2023-02-22T04:58:02.612Z,100.00
2023-02-22T05:00:29.180Z,100.00
2023-02-22T05:02:55.768Z,100.00
2023-02-22T05:05:23.204Z,100.00
2023-02-22T05:07:50.345Z,100.00
2023-02-22T05:10:17.286Z,100.00
2023-02-22T05:12:43.921Z,100.00
2023-02-22T05:15:11.456Z,100.00
2023-02-22T05:17:38.048Z,100.00
2023-02-22T05:20:05.378Z,100.00
2023-02-22T05:22:32.006Z,100.00
2023-02-22T05:24:58.659Z,100.00
2023-02-22T05:27:25.345Z,100.00
2023-02-22T05:29:51.885Z,100.00
2023-02-22T05:32:18.727Z,100.00
2023-02-22T05:34:45.834Z,100.00
2023-02-22T05:37:12.220Z,100.00
2023-02-22T05:39:38.595Z,100.00
2023-02-22T05:42:05.232Z,100.00
2023-02-22T05:44:31.813Z,100.00
2023-02-22T05:46:58.403Z,100.00
2023-02-22T05:49:24.994Z,100.00
2023-02-22T05:51:51.901Z,100.00
2023-02-22T05:54:18.476Z,100.00
2023-02-22T05:56:44.860Z,100.00
2023-02-22T05:59:11.484Z,100.00
2023-02-22T06:01:38.068Z,100.00
2023-02-22T06:04:04.999Z,100.00
2023-02-22T06:06:31.642Z,100.00
2023-02-22T06:08:58.321Z,100.00
2023-02-22T06:11:24.905Z,100.00
2023-02-22T06:13:52.587Z,100.00
2023-02-22T06:16:21.224Z,100.00
2023-02-22T06:18:49.017Z,100.00
2023-02-22T06:21:15.962Z,100.00
2023-02-22T06:23:42.826Z,100.00
2023-02-22T06:26:09.205Z,100.00
2023-02-22T06:28:35.601Z,100.00
2023-02-22T06:31:01.968Z,100.00
2023-02-22T06:33:28.543Z,100.00
2023-02-22T06:35:55.183Z,100.00
2023-02-22T06:38:23.884Z,100.00
2023-02-22T06:40:51.436Z,100.00
2023-02-22T06:43:18.052Z,100.00
2023-02-22T06:45:44.691Z,100.00
2023-02-22T06:48:11.238Z,100.00
2023-02-22T06:50:37.857Z,100.00
2023-02-22T06:53:05.075Z,100.00
2023-02-22T06:55:34.005Z,100.00
2023-02-22T06:58:01.065Z,100.00
2023-02-22T07:00:29.139Z,100.00
2023-02-22T07:02:56.397Z,100.00
2023-02-22T07:05:25.116Z,100.00
2023-02-22T07:07:53.633Z,100.00
2023-02-22T07:10:25.836Z,100.00
2023-02-22T07:12:52.804Z,100.00
2023-02-22T07:15:25.642Z,100.00
2023-02-22T07:17:52.679Z,100.00
2023-02-22T07:20:20.558Z,100.00
2023-02-22T07:22:48.004Z,100.00
2023-02-22T07:25:14.682Z,100.00
2023-02-22T07:27:42.854Z,100.00
2023-02-22T07:30:26.163Z,100.00
2023-02-22T07:32:55.272Z,100.00
2023-02-22T07:35:27.892Z,100.00
2023-02-22T07:37:56.040Z,100.00
2023-02-22T07:40:24.358Z,100.00
2023-02-22T07:42:56.881Z,100.00
2023-02-22T07:45:25.584Z,100.00
2023-02-22T07:47:52.295Z,100.00
2023-02-22T07:50:20.448Z,100.00
2023-02-22T07:52:50.435Z,100.00
2023-02-22T07:55:20.029Z,100.00
2023-02-22T07:57:47.637Z,100.00
2023-02-22T08:00:16.597Z,100.00
2023-02-22T08:02:43.612Z,100.00
2023-02-22T08:05:11.484Z,100.00
2023-02-22T08:07:38.420Z,100.00
2023-02-22T08:10:07.614Z,100.00
2023-02-22T08:12:36.452Z,100.00
2023-02-22T08:15:08.150Z,100.00
2023-02-22T08:17:34.731Z,100.00
2023-02-22T08:20:01.830Z,100.00
2023-02-22T08:22:29.032Z,100.00
2023-02-22T08:24:55.637Z,100.00
2023-02-22T08:27:27.965Z,100.00
2023-02-22T08:29:54.578Z,100.00
2023-02-22T08:32:21.707Z,100.00
2023-02-22T08:34:48.906Z,100.00
2023-02-22T08:37:16.704Z,100.00
2023-02-22T08:39:43.084Z,100.00
2023-02-22T08:42:10.530Z,100.00
2023-02-22T08:44:38.982Z,100.00
2023-02-22T08:47:06.348Z,100.00
2023-02-22T08:49:33.790Z,100.00
2023-02-22T08:52:00.189Z,100.00
2023-02-22T08:54:26.897Z,100.00
2023-02-22T08:56:53.352Z,100.00
2023-02-22T08:59:19.903Z,100.00
2023-02-22T09:01:46.590Z,100.00
2023-02-22T09:04:13.113Z,100.00
2023-02-22T09:06:43.582Z,100.00
2023-02-22T09:09:10.092Z,100.00
2023-02-22T09:11:36.676Z,100.00
2023-02-22T09:14:03.052Z,100.00
2023-02-22T09:16:30.949Z,100.00
2023-02-22T09:18:57.547Z,100.00
2023-02-22T09:21:23.929Z,100.00
2023-02-22T09:23:50.507Z,100.00
2023-02-22T09:26:17.072Z,100.00
2023-02-22T09:28:43.450Z,100.00
2023-02-22T09:31:09.777Z,100.00
2023-02-22T09:33:36.352Z,100.00
2023-02-22T09:36:02.718Z,100.00
2023-02-22T09:38:30.431Z,100.00
2023-02-22T09:41:16.740Z,100.00
2023-02-22T09:44:17.964Z,100.00
2023-02-22T09:46:46.318Z,100.00
2023-02-22T09:49:17.608Z,100.00
2023-02-22T09:52:08.260Z,100.00
2023-02-22T09:54:43.519Z,100.00
2023-02-22T09:57:18.099Z,100.00
2023-02-22T09:59:55.484Z,100.00
2023-02-22T10:02:34.543Z,100.00
2023-02-22T10:05:37.740Z,100.00
2023-02-22T10:08:10.384Z,100.00
2023-02-22T10:10:40.596Z,100.00
2023-02-22T10:13:16.287Z,100.00
2023-02-22T10:15:45.960Z,100.00
2023-02-22T10:18:49.703Z,100.00
2023-02-22T10:21:33.136Z,100.00
2023-02-22T10:24:27.493Z,100.00
2023-02-22T10:26:55.674Z,100.00
2023-02-22T10:29:40.089Z,100.00
2023-02-22T10:32:28.852Z,100.00
2023-02-22T10:34:58.229Z,100.00
2023-02-22T10:37:25.647Z,100.00
2023-02-22T10:39:59.344Z,100.00
2023-02-22T10:42:28.445Z,100.00
2023-02-22T10:44:55.004Z,100.00
2023-02-22T10:47:22.226Z,100.00
2023-02-22T10:49:55.757Z,100.00
2023-02-22T10:52:36.732Z,100.00
2023-02-22T10:55:14.939Z,100.00
2023-02-22T10:57:48.002Z,100.00
2023-02-22T11:00:51.608Z,100.00
2023-02-22T11:03:21.233Z,100.00
2023-02-22T11:05:48.617Z,100.00
2023-02-22T11:08:21.144Z,100.00
2023-02-22T11:10:54.061Z,100.00
2023-02-22T11:13:31.726Z,100.00
2023-02-22T11:16:18.504Z,100.00
2023-02-22T11:18:47.180Z,100.00
2023-02-22T11:21:16.859Z,100.00
2023-02-22T11:23:44.950Z,100.00
2023-02-22T11:26:15.162Z,99.73
2023-02-22T11:28:49.601Z,93.45
2023-02-22T11:31:28.855Z,95.77
2023-02-22T11:33:58.268Z,92.10
2023-02-22T11:36:41.896Z,88.98
2023-02-22T11:39:28.664Z,89.00
2023-02-22T11:41:58.212Z,85.17
2023-02-22T11:44:32.645Z,80.04
2023-02-22T11:47:06.787Z,82.47
2023-02-22T11:49:38.588Z,83.60
2023-02-22T11:52:27.173Z,73.50
2023-02-22T11:55:42.216Z,70.45
2023-02-22T11:58:18.509Z,63.85
2023-02-22T12:01:17.662Z,65.94
2023-02-22T12:04:26.541Z,67.55
2023-02-22T12:07:17.745Z,81.08
2023-02-22T12:10:19.599Z,72.77
2023-02-22T12:13:01.901Z,75.76
2023-02-22T12:15:30.537Z,87.78
2023-02-22T12:18:07.719Z,92.69
2023-02-22T12:20:57.117Z,93.38
2023-02-22T12:24:28.736Z,90.56
2023-02-22T12:27:05.820Z,92.04
2023-02-22T12:29:43.852Z,93.26
2023-02-22T12:32:17.814Z,93.42
2023-02-22T12:34:59.688Z,91.40
2023-02-22T12:37:39.579Z,92.43
2023-02-22T12:40:16.376Z,92.24
2023-02-22T12:43:05.937Z,90.15
2023-02-22T12:45:45.109Z,91.22
2023-02-22T12:48:42.717Z,88.40
2023-02-22T12:52:03.025Z,90.40
2023-02-22T12:54:45.807Z,92.18
2023-02-22T12:57:34.656Z,91.37
2023-02-22T13:00:20.281Z,96.33
2023-02-22T13:02:58.023Z,95.32
2023-02-22T13:05:24.718Z,94.00
2023-02-22T13:08:28.990Z,91.94
2023-02-22T13:11:25.651Z,90.43
2023-02-22T13:14:17.120Z,93.81
2023-02-22T13:16:54.780Z,97.97
2023-02-22T13:19:35.834Z,98.99
2023-02-22T13:22:09.322Z,93.86
2023-02-22T13:24:49.805Z,93.37
2023-02-22T13:27:26.363Z,94.58
2023-02-22T13:29:59.030Z,98.64
2023-02-22T13:32:34.365Z,98.56
2023-02-22T13:35:35.641Z,97.89
2023-02-22T13:38:25.254Z,95.27
2023-02-22T13:41:03.764Z,96.68
2023-02-22T13:44:02.132Z,100.00
2023-02-22T13:46:54.791Z,100.00
2023-02-22T13:49:30.622Z,100.00
2023-02-22T13:52:01.576Z,100.00
2023-02-22T13:54:39.956Z,100.00
2023-02-22T13:57:26.461Z,100.00
2023-02-22T14:00:15.023Z,100.00
2023-02-22T14:03:12.207Z,100.00
2023-02-22T14:05:42.096Z,100.00
2023-02-22T14:08:18.811Z,100.00
2023-02-22T14:10:55.928Z,100.00
2023-02-22T14:13:24.090Z,100.00
2023-02-22T14:16:02.979Z,100.00
2023-02-22T14:18:35.756Z,100.00
2023-02-22T14:21:09.532Z,100.00
2023-02-22T14:23:36.009Z,100.00
2023-02-22T14:26:25.926Z,100.00
2023-02-22T14:29:10.510Z,100.00
2023-02-22T14:31:43.628Z,100.00
2023-02-22T14:34:19.065Z,100.00
2023-02-22T14:37:09.027Z,100.00
2023-02-22T14:39:46.158Z,100.00
2023-02-22T14:42:27.795Z,100.00
2023-02-22T14:45:12.937Z,100.00
2023-02-22T14:48:17.080Z,100.00
2023-02-22T14:50:53.134Z,100.00
2023-02-22T14:53:41.188Z,100.00
2023-02-22T14:56:17.698Z,100.00
2023-02-22T14:58:46.097Z,100.00
2023-02-22T15:01:31.219Z,100.00
2023-02-22T15:04:32.375Z,100.00
2023-02-22T15:07:01.234Z,100.00
2023-02-22T15:09:33.624Z,100.00
2023-02-22T15:12:04.657Z,100.00
2023-02-22T15:14:37.720Z,100.00
2023-02-22T15:17:13.666Z,100.00
2023-02-22T15:19:42.253Z,100.00
2023-02-22T15:22:20.750Z,100.00
2023-02-22T15:25:05.279Z,100.00
2023-02-22T15:27:36.771Z,100.00
2023-02-22T15:30:08.353Z,100.00
2023-02-22T15:32:47.284Z,100.00
2023-02-22T15:35:26.416Z,100.00
2023-02-22T15:38:06.038Z,100.00
2023-02-22T15:40:33.658Z,100.00
2023-02-22T15:43:09.065Z,100.00
2023-02-22T15:45:42.750Z,100.00
2023-02-22T15:48:11.196Z,100.00
2023-02-22T15:50:39.299Z,100.00
2023-02-22T15:53:09.258Z,100.00
2023-02-22T15:55:37.065Z,100.00
2023-02-22T15:58:12.370Z,100.00
2023-02-22T16:00:42.089Z,100.00
2023-02-22T16:03:11.978Z,100.00
2023-02-22T16:05:43.946Z,100.00
2023-02-22T16:08:18.254Z,100.00
2023-02-22T16:11:04.519Z,100.00
2023-02-22T16:13:35.446Z,100.00
2023-02-22T16:16:04.861Z,100.00
2023-02-22T16:18:39.263Z,100.00
2023-02-22T16:21:13.292Z,100.00
2023-02-22T16:23:45.297Z,100.00
2023-02-22T16:26:32.878Z,100.00
2023-02-22T16:29:02.955Z,100.00
2023-02-22T16:31:35.935Z,100.00
2023-02-22T16:34:05.502Z,100.00
2023-02-22T16:36:46.963Z,100.00
2023-02-22T16:39:35.960Z,100.00
2023-02-22T16:42:04.345Z,100.00
2023-02-22T16:44:30.842Z,100.00
2023-02-22T16:46:59.022Z,100.00
2023-02-22T16:49:26.391Z,100.00
2023-02-22T16:51:56.310Z,100.00
2023-02-22T16:54:39.964Z,100.00
2023-02-22T16:57:06.690Z,100.00
2023-02-22T16:59:38.624Z,100.00
2023-02-22T17:02:07.786Z,100.00
2023-02-22T17:04:34.420Z,100.00
2023-02-22T17:07:05.166Z,100.00
2023-02-22T17:09:33.267Z,100.00
2023-02-22T17:12:00.164Z,100.00
2023-02-22T17:14:31.902Z,100.00
2023-02-22T17:17:01.361Z,100.00
2023-02-22T17:19:27.946Z,100.00
2023-02-22T17:21:54.721Z,100.00
2023-02-22T17:24:25.040Z,100.00
2023-02-22T17:26:56.246Z,100.00
2023-02-22T17:29:22.999Z,100.00
2023-02-22T17:31:50.083Z,100.00
2023-02-22T17:34:16.510Z,100.00
2023-02-22T17:36:43.798Z,100.00
2023-02-22T17:39:10.831Z,100.00
2023-02-22T17:41:40.350Z,100.00
2023-02-22T17:44:07.608Z,100.00
2023-02-22T17:46:36.312Z,100.00
2023-02-22T17:49:03.506Z,100.00
2023-02-22T17:51:29.960Z,100.00
2023-02-22T17:53:56.555Z,100.00
2023-02-22T17:56:22.988Z,100.00
2023-02-22T17:58:54.535Z,100.00
2023-02-22T18:01:31.341Z,100.00
2023-02-22T18:04:00.349Z,100.00
2023-02-22T18:06:29.883Z,100.00
2023-02-22T18:08:58.768Z,100.00
2023-02-22T18:11:26.675Z,100.00
2023-02-22T18:13:57.411Z,100.00
2023-02-22T18:16:28.506Z,100.00
2023-02-22T18:18:56.165Z,100.00
2023-02-22T18:21:23.781Z,100.00
2023-02-22T18:23:50.432Z,100.00
2023-02-22T18:26:19.178Z,100.00
2023-02-22T18:28:48.772Z,100.00
2023-02-22T18:31:20.605Z,100.00
2023-02-22T18:33:49.903Z,100.00
2023-02-22T18:36:23.398Z,100.00
2023-02-22T18:38:53.070Z,100.00
2023-02-22T18:41:21.023Z,100.00
2023-02-22T18:43:49.462Z,100.00
2023-02-22T18:46:19.604Z,100.00
2023-02-22T18:48:47.847Z,100.00
2023-02-22T18:51:17.303Z,100.00
2023-02-22T18:53:47.020Z,100.00
2023-02-22T18:56:22.159Z,100.00
2023-02-22T18:58:53.459Z,100.00
2023-02-22T19:01:20.755Z,100.00
2023-02-22T19:03:50.040Z,100.00
2023-02-22T19:06:18.026Z,100.00
2023-02-22T19:08:45.868Z,100.00
2023-02-22T19:11:18.080Z,100.00
2023-02-22T19:13:49.290Z,100.00
2023-02-22T19:16:20.169Z,100.00
2023-02-22T19:18:48.870Z,100.00
2023-02-22T19:21:16.613Z,100.00
2023-02-22T19:23:46.240Z,100.00
2023-02-22T19:26:18.982Z,100.00
2023-02-22T19:28:46.953Z,100.00
2023-02-22T19:31:19.539Z,100.00
2023-02-22T19:33:47.860Z,100.00
2023-02-22T19:36:15.611Z,100.00
2023-02-22T19:38:43.038Z,100.00
2023-02-22T19:41:12.613Z,100.00
2023-02-22T19:43:39.182Z,100.00
2023-02-22T19:46:07.824Z,100.00
2023-02-22T19:48:34.903Z,100.00
2023-02-22T19:51:06.432Z,100.00
2023-02-22T19:53:39.254Z,100.00
2023-02-22T19:56:09.428Z,100.00
2023-02-22T19:58:40.603Z,100.00
2023-02-22T20:01:29.222Z,100.00
2023-02-22T20:04:05.124Z,100.00
2023-02-22T20:06:35.173Z,100.00
2023-02-22T20:09:02.687Z,100.00
2023-02-22T20:11:29.601Z,100.00
2023-02-22T20:13:56.184Z,100.00
2023-02-22T20:16:24.092Z,100.00
2023-02-22T20:18:51.140Z,100.00
2023-02-22T20:21:32.528Z,100.00
2023-02-22T20:24:00.775Z,100.00
2023-02-22T20:26:29.510Z,100.00
2023-02-22T20:28:56.660Z,100.00
2023-02-22T20:31:23.958Z,100.00
2023-02-22T20:33:55.658Z,100.00
2023-02-22T20:36:22.313Z,100.00
2023-02-22T20:38:52.258Z,100.00
2023-02-22T20:41:25.233Z,100.00
2023-02-22T20:43:53.696Z,100.00
2023-02-22T20:46:20.089Z,100.00
2023-02-22T20:48:46.716Z,100.00
2023-02-22T20:51:15.420Z,100.00
2023-02-22T20:53:45.021Z,100.00
2023-02-22T20:56:13.096Z,100.00
2023-02-22T20:58:40.080Z,100.00
2023-02-22T21:01:08.445Z,100.00
2023-02-22T21:03:35.956Z,100.00
2023-02-22T21:06:05.138Z,100.00
2023-02-22T21:08:32.274Z,100.00
2023-02-22T21:10:59.610Z,100.00
2023-02-22T21:13:26.748Z,100.00
2023-02-22T21:15:53.476Z,100.00
2023-02-22T21:18:22.514Z,100.00
2023-02-22T21:20:50.037Z,100.00
2023-02-22T21:23:16.930Z,100.00
2023-02-22T21:25:50.736Z,100.00
2023-02-22T21:28:17.318Z,100.00
2023-02-22T21:30:44.735Z,100.00
2023-02-22T21:33:11.248Z,100.00
2023-02-22T21:35:40.423Z,100.00
2023-02-22T21:38:07.443Z,100.00
2023-02-22T21:40:35.065Z,100.00
2023-02-22T21:43:01.626Z,100.00
2023-02-22T21:45:29.474Z,100.00
2023-02-22T21:47:55.905Z,100.00
2023-02-22T21:50:25.395Z,100.00
2023-02-22T21:52:51.955Z,100.00
2023-02-22T21:55:19.248Z,100.00
2023-02-22T21:57:45.635Z,100.00
2023-02-22T22:00:20.905Z,100.00
2023-02-22T22:02:48.506Z,100.00
2023-02-22T22:05:31.754Z,100.00
2023-02-22T22:07:58.580Z,100.00
2023-02-22T22:10:28.039Z,100.00
2023-02-22T22:12:54.727Z,100.00
2023-02-22T22:15:21.320Z,100.00
2023-02-22T22:17:47.911Z,100.00
2023-02-22T22:20:15.636Z,100.00
2023-02-22T22:22:45.594Z,100.00
2023-02-22T22:25:14.310Z,100.00
2023-02-22T22:27:40.894Z,100.00
2023-02-22T22:30:08.370Z,100.00
2023-02-22T22:32:35.178Z,100.00
2023-02-22T22:35:02.003Z,100.00
2023-02-22T22:37:29.230Z,100.00
2023-02-22T22:39:56.105Z,100.00
2023-02-22T22:42:24.550Z,100.00
2023-02-22T22:44:51.750Z,100.00
2023-02-22T22:47:19.620Z,100.00
2023-02-22T22:49:47.928Z,100.00
2023-02-22T22:52:16.638Z,100.00
2023-02-22T22:54:43.972Z,100.00
2023-02-22T22:57:11.462Z,100.00
2023-02-22T22:59:37.893Z,100.00
2023-02-22T23:02:09.927Z,100.00
2023-02-22T23:04:38.158Z,100.00
2023-02-22T23:07:06.743Z,100.00
2023-02-22T23:09:35.236Z,100.00
2023-02-22T23:12:17.886Z,100.00
2023-02-22T23:14:45.594Z,100.00
2023-02-22T23:17:16.081Z,100.00
2023-02-22T23:19:45.266Z,100.00
2023-02-22T23:22:14.605Z,100.00
2023-02-22T23:24:41.696Z,100.00
2023-02-22T23:27:10.714Z,100.00
2023-02-22T23:29:39.518Z,100.00
2023-02-22T23:32:06.660Z,100.00
2023-02-22T23:34:36.056Z,100.00
2023-02-22T23:37:03.073Z,100.00
2023-02-22T23:39:29.743Z,100.00
2023-02-22T23:42:01.287Z,100.00
2023-02-22T23:44:28.417Z,100.00
2023-02-22T23:46:55.935Z,100.00
2023-02-22T23:49:25.527Z,100.00
2023-02-22T23:51:52.778Z,100.00
2023-02-22T23:54:20.703Z,100.00
2023-02-22T23:56:56.977Z,100.00
2023-02-22T23:59:26.432Z,100.00
